createdAt,value
2023-08-07T00:01:41.761Z,15.30
2023-08-07T00:04:45.978Z,15.30
2023-08-07T00:07:50.074Z,15.20
2023-08-07T00:10:54.343Z,15.30
2023-08-07T00:13:59.013Z,15.30
2023-08-07T00:17:03.667Z,15.30
2023-08-07T00:20:08.597Z,15.30
2023-08-07T00:23:13.271Z,15.30
2023-08-07T00:26:17.523Z,15.30
2023-08-07T00:29:21.831Z,15.30
2023-08-07T00:32:26.299Z,15.30
2023-08-07T00:35:30.531Z,15.20
2023-08-07T00:38:34.761Z,15.30
2023-08-07T00:41:38.748Z,15.30
2023-08-07T00:44:42.919Z,15.50
2023-08-07T00:47:47.347Z,15.50
2023-08-07T00:50:52.071Z,15.60
2023-08-07T00:53:56.093Z,15.60
2023-08-07T00:57:07.916Z,15.60
2023-08-07T01:00:12.903Z,15.50
2023-08-07T01:03:17.326Z,15.50
2023-08-07T01:06:21.923Z,15.50
2023-08-07T01:09:26.575Z,15.60
2023-08-07T01:12:31.708Z,15.70
2023-08-07T01:15:37.799Z,15.70
2023-08-07T01:18:43.834Z,15.70
2023-08-07T01:21:49.433Z,15.70
2023-08-07T01:24:53.898Z,15.70
2023-08-07T01:28:09.483Z,15.70
2023-08-07T01:31:17.213Z,15.80
2023-08-07T01:34:23.138Z,15.80
2023-08-07T01:37:27.700Z,15.80
2023-08-07T01:40:32.019Z,15.90
2023-08-07T01:43:36.765Z,15.90
2023-08-07T01:46:40.970Z,16.00
2023-08-07T01:49:45.672Z,15.90
2023-08-07T01:52:50.129Z,15.90
2023-08-07T01:55:54.974Z,15.90
2023-08-07T01:58:59.486Z,16.00
2023-08-07T02:02:04.265Z,15.90
2023-08-07T02:05:08.876Z,15.80
2023-08-07T02:08:13.792Z,15.80
2023-08-07T02:11:18.976Z,15.70
2023-08-07T02:14:22.946Z,15.80
2023-08-07T02:17:28.595Z,15.90
2023-08-07T02:20:33.277Z,15.80
2023-08-07T02:23:37.669Z,15.90
2023-08-07T02:26:42.025Z,15.90
2023-08-07T02:29:46.230Z,15.90
2023-08-07T02:32:50.837Z,15.90
2023-08-07T02:35:54.962Z,15.90
2023-08-07T02:38:59.279Z,15.90
2023-08-07T02:42:04.223Z,15.90
2023-08-07T02:45:08.970Z,15.90
2023-08-07T02:48:13.210Z,16.00
2023-08-07T02:51:17.960Z,16.00
2023-08-07T02:54:22.245Z,16.00
2023-08-07T02:57:26.869Z,16.10
2023-08-07T03:00:30.853Z,16.10
2023-08-07T03:03:34.748Z,16.10
2023-08-07T03:06:39.008Z,16.10
2023-08-07T03:09:46.187Z,16.10
2023-08-07T03:12:50.418Z,16.20
2023-08-07T03:16:01.529Z,16.20
2023-08-07T03:19:05.972Z,16.20
2023-08-07T03:22:11.119Z,16.20
2023-08-07T03:25:16.130Z,16.30
2023-08-07T03:28:20.295Z,16.20
2023-08-07T03:31:25.028Z,16.10
2023-08-07T03:34:29.816Z,16.10
2023-08-07T03:37:34.127Z,16.00
2023-08-07T03:40:38.129Z,16.00
2023-08-07T03:43:44.134Z,16.00
2023-08-07T03:46:48.654Z,15.90
2023-08-07T03:49:54.558Z,15.90
2023-08-07T03:52:59.216Z,16.10
2023-08-07T03:56:04.015Z,16.10
2023-08-07T03:59:10.508Z,16.20
2023-08-07T04:02:15.020Z,16.20
2023-08-07T04:05:19.469Z,16.20
2023-08-07T04:08:24.075Z,16.20
2023-08-07T04:11:28.798Z,16.20
2023-08-07T04:14:33.374Z,16.10
2023-08-07T04:17:38.270Z,16.10
2023-08-07T04:20:43.213Z,16.10
2023-08-07T04:23:47.477Z,16.10
2023-08-07T04:26:51.684Z,16.20
2023-08-07T04:29:56.039Z,16.20
2023-08-07T04:33:01.839Z,16.20
2023-08-07T04:36:06.498Z,16.30
2023-08-07T04:39:10.690Z,16.30
2023-08-07T04:42:14.612Z,16.40
2023-08-07T04:45:19.119Z,16.40
2023-08-07T04:48:26.244Z,16.40
2023-08-07T04:51:32.238Z,16.60
2023-08-07T04:54:36.587Z,16.50
2023-08-07T04:57:40.515Z,16.50
2023-08-07T05:00:44.436Z,16.40
2023-08-07T05:03:49.055Z,16.40
2023-08-07T05:06:53.751Z,16.40
2023-08-07T05:10:00.609Z,16.40
2023-08-07T05:13:04.889Z,16.50
2023-08-07T05:16:09.065Z,16.40
2023-08-07T05:19:13.803Z,16.50
2023-08-07T05:22:18.001Z,16.40
2023-08-07T05:25:22.821Z,16.30
2023-08-07T05:28:27.290Z,16.40
2023-08-07T05:31:31.909Z,16.40
2023-08-07T05:34:36.135Z,16.30
2023-08-07T05:37:40.222Z,16.30
2023-08-07T05:40:44.396Z,16.40
2023-08-07T05:43:48.585Z,16.40
2023-08-07T05:46:52.548Z,16.50
2023-08-07T05:49:56.763Z,16.40
2023-08-07T05:53:00.816Z,16.40
2023-08-07T05:56:05.097Z,16.50
2023-08-07T05:59:09.729Z,16.50
2023-08-07T06:02:14.189Z,16.50
2023-08-07T06:05:18.771Z,16.50
2023-08-07T06:08:23.100Z,16.60
2023-08-07T06:11:27.273Z,16.70
2023-08-07T06:14:31.359Z,16.60
2023-08-07T06:17:35.537Z,16.80
2023-08-07T06:20:39.614Z,16.70
2023-08-07T06:23:43.811Z,16.70
2023-08-07T06:26:48.272Z,16.70
2023-08-07T06:29:52.742Z,16.60
2023-08-07T06:32:56.951Z,16.70
2023-08-07T06:36:01.468Z,16.80
2023-08-07T06:39:05.910Z,16.70
2023-08-07T06:42:10.292Z,16.70
2023-08-07T06:45:14.595Z,16.70
2023-08-07T06:48:19.082Z,16.70
2023-08-07T06:51:23.440Z,16.80
2023-08-07T06:54:27.817Z,16.70
2023-08-07T06:57:31.838Z,16.70
2023-08-07T07:00:36.537Z,16.70
2023-08-07T07:03:40.654Z,16.70
2023-08-07T07:06:45.283Z,16.70
2023-08-07T07:09:49.456Z,16.60
2023-08-07T07:12:53.776Z,16.60
2023-08-07T07:15:58.398Z,16.60
2023-08-07T07:19:05.155Z,16.50
2023-08-07T07:22:09.603Z,16.50
2023-08-07T07:25:13.867Z,16.50
2023-08-07T07:28:18.093Z,16.50
2023-08-07T07:31:21.982Z,16.50
2023-08-07T07:34:26.483Z,16.50
2023-08-07T07:37:31.338Z,16.50
2023-08-07T07:40:36.135Z,16.50
2023-08-07T07:43:40.553Z,16.40
2023-08-07T07:46:45.547Z,16.40
2023-08-07T07:49:50.026Z,16.50
2023-08-07T07:52:54.464Z,16.50
2023-08-07T07:55:58.535Z,16.50
2023-08-07T07:59:02.516Z,16.40
2023-08-07T08:02:07.009Z,16.40
2023-08-07T08:05:14.327Z,16.50
2023-08-07T08:08:18.638Z,16.50
2023-08-07T08:11:23.204Z,16.60
2023-08-07T08:14:27.656Z,16.70
2023-08-07T08:17:32.160Z,16.70
2023-08-07T08:20:37.066Z,16.60
2023-08-07T08:23:41.490Z,16.70
2023-08-07T08:26:45.330Z,16.70
2023-08-07T08:29:49.543Z,16.80
2023-08-07T08:32:53.951Z,16.70
2023-08-07T08:35:58.562Z,16.70
2023-08-07T08:39:04.883Z,16.70
2023-08-07T08:42:12.391Z,16.70
2023-08-07T08:45:16.615Z,16.70
2023-08-07T08:48:24.650Z,16.70
2023-08-07T08:51:28.908Z,16.70
2023-08-07T08:54:33.921Z,16.70
2023-08-07T08:57:38.681Z,16.60
2023-08-07T09:00:43.646Z,16.50
2023-08-07T09:03:48.598Z,16.60
2023-08-07T09:06:52.962Z,16.50
2023-08-07T09:09:58.093Z,16.60
2023-08-07T09:13:05.133Z,16.60
2023-08-07T09:16:10.061Z,16.50
2023-08-07T09:19:14.458Z,16.50
2023-08-07T09:22:18.470Z,16.40
2023-08-07T09:25:29.646Z,16.40
2023-08-07T09:28:34.124Z,16.30
2023-08-07T09:31:38.701Z,16.30
2023-08-07T09:34:43.709Z,16.30
2023-08-07T09:37:48.085Z,16.30
2023-08-07T09:40:52.270Z,16.30
2023-08-07T09:43:57.081Z,16.30
2023-08-07T09:47:01.276Z,16.20
2023-08-07T09:50:05.523Z,16.40
2023-08-07T09:53:11.500Z,16.40
2023-08-07T09:56:15.788Z,16.30
2023-08-07T09:59:20.370Z,16.40
2023-08-07T10:02:24.788Z,16.40
2023-08-07T10:05:29.850Z,16.20
2023-08-07T10:08:36.740Z,16.30
2023-08-07T10:11:42.326Z,16.50
2023-08-07T10:14:46.891Z,16.40
2023-08-07T10:17:51.407Z,16.40
2023-08-07T10:20:56.811Z,16.40
2023-08-07T10:24:01.171Z,16.20
2023-08-07T10:27:06.351Z,16.30
2023-08-07T10:30:15.845Z,16.10
2023-08-07T10:33:21.273Z,16.30
2023-08-07T10:36:32.845Z,16.10
2023-08-07T10:39:39.411Z,16.20
2023-08-07T10:42:56.210Z,15.90
2023-08-07T10:46:04.072Z,15.70
2023-08-07T10:49:08.630Z,15.70
2023-08-07T10:52:14.334Z,15.70
2023-08-07T10:55:19.333Z,15.40
2023-08-07T10:58:30.007Z,15.50
2023-08-07T11:01:34.137Z,15.50
2023-08-07T11:04:38.760Z,15.40
2023-08-07T11:07:44.731Z,15.40
2023-08-07T11:10:49.237Z,15.30
2023-08-07T11:13:53.445Z,15.40
2023-08-07T11:16:57.884Z,15.50
2023-08-07T11:20:02.789Z,15.40
2023-08-07T11:23:07.312Z,15.50
2023-08-07T11:26:11.616Z,15.80
2023-08-07T11:29:20.036Z,15.80
2023-08-07T11:32:24.401Z,15.70
2023-08-07T11:35:28.539Z,15.80
2023-08-07T11:38:39.078Z,15.50
2023-08-07T11:41:43.590Z,15.40
2023-08-07T11:44:47.993Z,15.50
2023-08-07T11:47:52.408Z,15.90
2023-08-07T11:50:57.236Z,15.70
2023-08-07T11:54:02.179Z,15.80
2023-08-07T11:57:16.232Z,15.70
2023-08-07T12:00:21.446Z,15.70
2023-08-07T12:03:27.827Z,15.80
2023-08-07T12:06:32.488Z,15.90
2023-08-07T12:09:36.679Z,16.00
2023-08-07T12:12:41.354Z,16.10
2023-08-07T12:15:45.556Z,16.00
2023-08-07T12:18:50.995Z,16.30
2023-08-07T12:21:55.384Z,16.40
2023-08-07T12:24:59.467Z,16.50
2023-08-07T12:28:03.812Z,16.40
2023-08-07T12:31:08.325Z,16.60
2023-08-07T12:37:19.971Z,16.10
2023-08-07T12:43:31.621Z,16.50
2023-08-07T12:46:38.174Z,16.50
2023-08-07T12:49:47.150Z,16.70
2023-08-07T12:52:51.383Z,16.60
2023-08-07T12:55:55.794Z,16.70
2023-08-07T12:59:00.331Z,16.70
2023-08-07T13:02:04.971Z,16.80
2023-08-07T13:05:13.414Z,16.70
2023-08-07T13:08:17.697Z,16.60
2023-08-07T13:11:21.767Z,16.60
2023-08-07T13:14:25.994Z,16.50
2023-08-07T13:17:33.417Z,16.60
2023-08-07T13:20:37.740Z,16.60
2023-08-07T13:23:41.974Z,16.60
2023-08-07T13:26:46.033Z,16.50
2023-08-07T13:29:50.043Z,16.60
2023-08-07T13:32:54.788Z,16.70
2023-08-07T13:35:59.244Z,16.70
2023-08-07T13:39:03.393Z,16.60
2023-08-07T13:42:07.603Z,16.70
2023-08-07T13:45:11.912Z,16.60
2023-08-07T13:48:16.023Z,16.50
2023-08-07T13:51:20.304Z,16.80
2023-08-07T13:54:24.361Z,16.80
2023-08-07T13:57:28.579Z,16.70
2023-08-07T14:00:35.399Z,16.70
2023-08-07T14:03:39.631Z,16.80
2023-08-07T14:06:45.467Z,16.90
2023-08-07T14:09:49.923Z,16.60
2023-08-07T14:12:54.105Z,16.80
2023-08-07T14:15:58.069Z,16.80
2023-08-07T14:19:01.902Z,16.80
2023-08-07T14:22:06.154Z,16.80
2023-08-07T14:25:10.534Z,16.70
2023-08-07T14:28:14.647Z,16.70
2023-08-07T14:31:18.920Z,16.70
2023-08-07T14:34:23.277Z,16.90
2023-08-07T14:37:27.504Z,16.80
2023-08-07T14:40:31.841Z,17.00
2023-08-07T14:43:35.894Z,17.10
2023-08-07T14:46:40.430Z,16.80
2023-08-07T14:49:44.472Z,16.70
2023-08-07T14:52:48.830Z,16.60
2023-08-07T14:55:53.530Z,16.60
2023-08-07T14:58:57.471Z,17.00
2023-08-07T15:02:02.261Z,16.90
2023-08-07T15:05:07.239Z,16.80
2023-08-07T15:08:11.557Z,17.00
2023-08-07T15:11:16.090Z,16.70
2023-08-07T15:14:20.689Z,17.10
2023-08-07T15:17:24.834Z,16.80
2023-08-07T15:20:29.831Z,16.90
2023-08-07T15:23:33.994Z,16.80
2023-08-07T15:26:38.332Z,17.20
2023-08-07T15:29:45.559Z,16.90
2023-08-07T15:32:50.369Z,17.00
2023-08-07T15:35:55.627Z,16.90
2023-08-07T15:38:59.742Z,16.80
2023-08-07T15:42:04.400Z,16.70
2023-08-07T15:45:09.071Z,16.70
2023-08-07T15:48:13.715Z,16.60
2023-08-07T15:51:18.089Z,16.30
2023-08-07T15:54:23.656Z,16.40
2023-08-07T15:57:28.221Z,16.50
2023-08-07T16:00:35.202Z,16.40
2023-08-07T16:03:40.192Z,16.50
2023-08-07T16:06:44.526Z,16.10
2023-08-07T16:09:48.554Z,16.40
2023-08-07T16:12:56.549Z,16.30
2023-08-07T16:16:00.956Z,16.40
2023-08-07T16:19:05.165Z,16.30
2023-08-07T16:22:09.531Z,16.40
2023-08-07T16:25:13.726Z,16.20
2023-08-07T16:28:17.936Z,16.20
2023-08-07T16:31:22.023Z,16.30
2023-08-07T16:34:26.061Z,16.40
2023-08-07T16:37:31.225Z,16.40
2023-08-07T16:40:36.343Z,16.20
2023-08-07T16:43:40.549Z,16.20
2023-08-07T16:46:44.995Z,16.10
2023-08-07T16:49:50.076Z,15.90
2023-08-07T16:52:54.831Z,16.30
2023-08-07T16:55:59.311Z,16.40
2023-08-07T16:59:03.551Z,16.40
2023-08-07T17:02:08.191Z,16.30
2023-08-07T17:05:12.582Z,16.20
2023-08-07T17:08:16.644Z,16.20
2023-08-07T17:11:20.945Z,16.20
2023-08-07T17:14:25.857Z,16.20
2023-08-07T17:17:30.260Z,16.10
2023-08-07T17:20:34.385Z,16.10
2023-08-07T17:23:38.997Z,16.20
2023-08-07T17:26:43.681Z,16.20
2023-08-07T17:29:48.183Z,16.20
2023-08-07T17:32:53.922Z,16.30
2023-08-07T17:35:58.225Z,16.20
2023-08-07T17:39:02.778Z,16.20
2023-08-07T17:42:08.361Z,16.30
2023-08-07T17:45:13.672Z,16.50
2023-08-07T17:48:19.919Z,16.40
2023-08-07T17:51:25.587Z,16.40
2023-08-07T17:54:30.095Z,16.10
2023-08-07T17:57:34.217Z,15.80
2023-08-07T18:00:38.811Z,15.70
2023-08-07T18:03:43.193Z,15.70
2023-08-07T18:06:47.582Z,15.70
2023-08-07T18:09:51.898Z,16.90
2023-08-07T18:12:56.074Z,15.00
2023-08-07T18:16:00.341Z,16.40
2023-08-07T18:19:04.354Z,16.00
2023-08-07T18:22:08.612Z,15.80
2023-08-07T18:25:12.864Z,15.30
2023-08-07T18:28:16.967Z,15.90
2023-08-07T18:31:23.123Z,16.10
2023-08-07T18:34:28.034Z,16.10
2023-08-07T18:37:32.318Z,15.80
2023-08-07T18:40:38.827Z,15.80
2023-08-07T18:43:43.314Z,16.30
2023-08-07T18:46:47.386Z,16.00
2023-08-07T18:49:51.809Z,16.00
2023-08-07T18:52:56.277Z,16.00
2023-08-07T18:56:00.408Z,16.10
2023-08-07T18:59:04.714Z,15.90
2023-08-07T19:02:08.925Z,15.90
2023-08-07T19:05:13.030Z,15.60
2023-08-07T19:08:19.103Z,15.60
2023-08-07T19:11:23.744Z,15.40
2023-08-07T19:14:27.902Z,15.40
2023-08-07T19:17:35.532Z,15.40
2023-08-07T19:20:40.158Z,15.40
2023-08-07T19:23:44.540Z,15.30
2023-08-07T19:26:48.837Z,15.30
2023-08-07T19:29:54.757Z,15.00
2023-08-07T19:32:58.856Z,15.00
2023-08-07T19:36:02.940Z,15.30
2023-08-07T19:39:07.035Z,15.20
2023-08-07T19:42:11.318Z,15.10
2023-08-07T19:45:15.632Z,15.10
2023-08-07T19:48:20.159Z,14.80
2023-08-07T19:51:24.761Z,14.80
2023-08-07T19:54:28.698Z,14.80
2023-08-07T19:57:33.215Z,15.00
2023-08-07T20:00:37.500Z,15.20
2023-08-07T20:03:41.532Z,15.20
2023-08-07T20:06:45.482Z,15.10
2023-08-07T20:09:49.647Z,14.90
2023-08-07T20:12:54.432Z,14.90
2023-08-07T20:16:00.573Z,15.00
2023-08-07T20:19:05.413Z,14.90
2023-08-07T20:22:09.447Z,15.00
2023-08-07T20:25:13.799Z,15.10
2023-08-07T20:28:17.739Z,15.00
2023-08-07T20:31:21.850Z,14.90
2023-08-07T20:34:26.124Z,15.00
2023-08-07T20:37:30.271Z,15.00
2023-08-07T20:40:34.582Z,15.10
2023-08-07T20:43:39.239Z,15.10
2023-08-07T20:46:43.389Z,15.10
2023-08-07T20:49:47.940Z,15.10
2023-08-07T20:52:52.002Z,15.10
2023-08-07T20:55:55.951Z,15.20
2023-08-07T20:59:00.085Z,15.30
2023-08-07T21:02:04.392Z,15.30
2023-08-07T21:05:09.037Z,15.30
2023-08-07T21:08:13.588Z,15.20
2023-08-07T21:11:17.467Z,15.30
2023-08-07T21:14:21.578Z,15.30
2023-08-07T21:17:26.013Z,15.20
2023-08-07T21:20:30.150Z,15.20
2023-08-07T21:23:36.044Z,15.20
2023-08-07T21:26:40.816Z,15.10
2023-08-07T21:29:45.058Z,15.30
2023-08-07T21:32:49.281Z,15.30
2023-08-07T21:35:54.089Z,15.30
2023-08-07T21:39:01.090Z,15.20
2023-08-07T21:42:05.400Z,15.20
2023-08-07T21:45:10.018Z,15.30
2023-08-07T21:48:14.302Z,15.40
2023-08-07T21:51:18.602Z,15.40
2023-08-07T21:54:23.595Z,15.40
2023-08-07T21:57:27.885Z,15.50
2023-08-07T22:00:32.172Z,15.40
2023-08-07T22:03:36.864Z,15.50
2023-08-07T22:06:41.420Z,15.50
2023-08-07T22:09:46.031Z,15.50
2023-08-07T22:12:50.802Z,15.50
2023-08-07T22:15:54.952Z,15.50
2023-08-07T22:18:59.537Z,15.40
2023-08-07T22:22:04.298Z,15.50
2023-08-07T22:25:09.421Z,15.50
2023-08-07T22:28:14.060Z,15.40
2023-08-07T22:31:18.222Z,15.50
2023-08-07T22:34:23.194Z,15.50
2023-08-07T22:37:27.318Z,15.50
2023-08-07T22:40:31.310Z,15.40
2023-08-07T22:43:36.046Z,15.40
2023-08-07T22:46:40.644Z,15.40
2023-08-07T22:49:45.213Z,15.50
2023-08-07T22:52:49.276Z,15.40
2023-08-07T22:55:56.186Z,15.40
2023-08-07T22:59:00.849Z,15.50
2023-08-07T23:02:05.240Z,15.40
2023-08-07T23:05:09.659Z,15.40
2023-08-07T23:08:13.628Z,15.40
2023-08-07T23:11:17.761Z,15.40
2023-08-07T23:14:21.783Z,15.40
2023-08-07T23:17:26.285Z,15.50
2023-08-07T23:20:31.105Z,15.50
2023-08-07T23:23:35.154Z,15.40
2023-08-07T23:26:40.755Z,15.40
2023-08-07T23:29:44.903Z,15.30
2023-08-07T23:32:49.341Z,15.30
2023-08-07T23:35:53.605Z,15.30
2023-08-07T23:38:57.789Z,15.20
2023-08-07T23:42:01.978Z,15.30
2023-08-07T23:45:06.947Z,15.30
2023-08-07T23:48:11.438Z,15.30
2023-08-07T23:51:15.828Z,15.20
2023-08-07T23:54:20.067Z,15.30
2023-08-07T23:57:24.425Z,15.20
